SBOSBO MRU / FIMP
Speedbird OnlineSpeedbird Online MRU / FIMP

Sir Seewoosagur Ramgoolam International Airport
23:52 22°C

Location Plaisance, Mauritius
Latitude: -20.430201
Longitude: 57.683601
Web Airport Website | Wikipedia
Altitude 57 Meter / 186 Feet
Distance 9,754 KM / 6,061 Miles
from London.
Time Zone UTC +4 hours (Indian/Mauritius)
Codes IATA: MRU
ICAO: FIMP
Currency £1 equals MUR 48.38
Runways
RunwayLength (m)Surface
143370Asphalt
323370Asphalt
Radio
TypeDescriptionFrequency
A/GINFO347.6
APPAPP119.1
ATISATIS126.2
TWRTWR118.1
Live ATC
METAR FIMP 241900Z 11012KT 9999 VCSH SCT016 22/17 Q1023
TAF TAF COR FIMP 241700Z 2418/2600 11015G25KT 9999 SCT016 PROB30 TEMPO 2418/2500 7000 -SHRA FEW010 BKN015
Weather As Of 24 Sep 2022 23:52
Description Scattered clouds
Wind 22 km/h from East (110°)
Cloud Cover 40%
Precipitation Rain: none, Snow: none
Sunrise 05:57
Sunset 18:05
Lounges ATOL Lounge , International Departures
Rotations During the last 90 days there were
37 flights from LGW
37 flights to LGW


© 2017-2022 Speedbird Online